Weather at Scholes International At Galveston Airport

Public forecast

Using degrees Fahrenheit for public forecast. Weather courtesy of forecast.io.

Current aviation weather report (METAR) for Scholes International At Galveston Airport

Retrieved 2020/09/20 23:52 UTC (34 minutes ago):

KGLS 202352Z AUTO 02021G32KT 5SM -RA BR BKN010 OVC015 24/22 A2988 RMK AO2 PK WND 02032/2336 RAB2256 CIG 008V012 SLP116 P0000 60006 T02390217 10244 20222 55000

Aviation forecast (TAF) for Scholes International At Galveston Airport

Retrieved 2020-09-21 00:57 UTC (0 seconds ago):

TAF KGLS 202353Z 2100/2124 02024G31KT 4SM -SHRA BKN012 OVC016 FM210200 03028G36KT 5SM -SHRA BR BKN007 OVC015 FM210700 05032G39KT 6SM -SHRA BR OVC010 FM211100 07031G38KT 3SM -SHRA BR OVC015 FM211600 08021G29KT 3SM -SHRA BR BKN008 OVC015 FM211800 08017G24KT 2SM -SHRA BR BKN007 OVC015 FM212300 09016G23KT 2SM -RA BR OVC015